Accueil
METAR-TAF:

METAR-TAF

Aéroports :

Aéroport d'Antioche

Antioche, Turquie

latitude: 36-21-46N, longitude: 36-16-56E, altitude: 1950 m

Observation

Le bulletin a été fait il y a 1 heure et 5 minutes, à 12:50 UTC
Vent 10 kt de est
Température 11°C
Humidité 87%
Pression 1011 hPa
Visibilité: 8000 m
Nuages fragmentés à une hauteur de 2500 ft

METAR: LTDA 121250Z 08010KT 8000 BKN025 11/09 Q1011 NOSIG

Heure: 16:55 (13:55 UTC)

Prévision

Le bulletin a été fait il y a 3 heures et 15 minutes, à 10:40 UTC
Prévision valable du 12 à 12 UTC au 12 à 21 UTC
Vent 12 kt de nord-est
Visibilité: 6000 m
Nuages fragmentés à une hauteur de 2500 ft
faibles averses de pluie
Temporairement
du 12 à 14 UTC au 12 à 17 UTC
Visibilité: 4000 m
averses de pluie

TAF: LTDA 121040Z 1212/1221 05012KT 6000 -SHRA BKN025 TEMPO 1214/1217 4000 SHRA

Observations et prévisions météorologiques de plus de 4000 aéroports (messages METAR et TAF).

Les stations disponibles sont représentées par des disques jaunes et rouges sur la carte.

Passer la souris dessus pour voir le nom de la station.

Cliquer dessus pour voir les observations et prévisions météorologiques.

Pour changer de carte: cliquez sur les boutons verts avec une croix noire pour zoomer, sur le bouton vert avec un tiret pour effectuer un zoom arrière, ou sur les flèches vertes pour les cartes adjacentes.


METAR-TAF: